createdAt,value
2019-03-24T00:00:31.898Z,65.87
2019-03-24T00:03:01.388Z,66.02
2019-03-24T00:05:30.813Z,66.12
2019-03-24T00:08:00.230Z,66.11
2019-03-24T00:10:29.653Z,66.29
2019-03-24T00:12:59.162Z,66.16
2019-03-24T00:15:28.579Z,65.93
2019-03-24T00:17:57.987Z,66.17
2019-03-24T00:20:27.416Z,66.45
2019-03-24T00:22:56.857Z,66.45
2019-03-24T00:25:26.279Z,66.19
2019-03-24T00:27:55.687Z,66.61
2019-03-24T00:30:25.123Z,66.16
2019-03-24T00:32:54.574Z,66.51
2019-03-24T00:35:23.996Z,66.45
2019-03-24T00:37:53.407Z,66.96
2019-03-24T00:40:22.825Z,67.11
2019-03-24T00:42:52.243Z,67.07
2019-03-24T00:45:21.734Z,67.46
2019-03-24T00:47:51.146Z,67.79
2019-03-24T00:50:20.591Z,67.98
2019-03-24T00:52:49.982Z,67.80
2019-03-24T00:55:19.465Z,68.09
2019-03-24T00:57:48.866Z,67.72
2019-03-24T01:00:21.336Z,67.44
2019-03-24T01:02:50.748Z,67.30
2019-03-24T01:05:20.398Z,67.28
2019-03-24T01:07:49.872Z,67.49
2019-03-24T01:10:19.312Z,67.96
2019-03-24T01:12:48.715Z,67.88
2019-03-24T01:15:18.139Z,68.09
2019-03-24T01:17:47.604Z,67.96
2019-03-24T01:20:18.500Z,67.50
2019-03-24T01:22:47.910Z,67.13
2019-03-24T01:25:17.361Z,67.60
2019-03-24T01:27:46.804Z,67.59
2019-03-24T01:30:16.273Z,68.35
2019-03-24T01:32:45.714Z,68.53
2019-03-24T01:35:15.386Z,68.85
2019-03-24T01:37:44.787Z,68.69
2019-03-24T01:40:14.353Z,68.78
2019-03-24T01:42:43.747Z,69.13
2019-03-24T01:45:13.511Z,69.48
2019-03-24T01:47:42.925Z,69.23
2019-03-24T01:50:12.791Z,69.35
2019-03-24T01:52:42.199Z,69.23
2019-03-24T01:55:12.067Z,70.08
2019-03-24T01:57:41.537Z,70.54
2019-03-24T02:00:11.243Z,70.39
2019-03-24T02:02:40.735Z,70.21
2019-03-24T02:05:10.398Z,70.32
2019-03-24T02:07:39.849Z,70.07
2019-03-24T02:10:09.991Z,69.88
2019-03-24T02:12:39.398Z,69.12
2019-03-24T02:15:09.744Z,69.22
2019-03-24T02:17:39.236Z,68.79
2019-03-24T02:20:09.526Z,68.56
2019-03-24T02:22:38.951Z,69.11
2019-03-24T02:25:08.691Z,69.63
2019-03-24T02:27:38.121Z,70.23
2019-03-24T02:30:09.683Z,70.33
2019-03-24T02:32:39.104Z,70.06
2019-03-24T02:35:08.979Z,70.72
2019-03-24T02:37:38.387Z,70.98
2019-03-24T02:40:08.552Z,70.38
2019-03-24T02:42:37.955Z,70.63
2019-03-24T02:45:08.304Z,70.42
2019-03-24T02:47:37.789Z,70.13
2019-03-24T02:50:08.434Z,69.67
2019-03-24T02:52:37.867Z,69.75
2019-03-24T02:55:08.198Z,70.24
2019-03-24T02:57:37.635Z,70.55
2019-03-24T03:00:10.302Z,71.13
2019-03-24T03:02:39.831Z,71.74
2019-03-24T03:05:10.062Z,72.18
2019-03-24T03:07:39.467Z,72.00
2019-03-24T03:10:09.030Z,71.12
2019-03-24T03:12:38.460Z,71.48
2019-03-24T03:15:08.762Z,71.55
2019-03-24T03:17:38.330Z,72.25
2019-03-24T03:20:09.617Z,73.14
2019-03-24T03:22:39.110Z,72.68
2019-03-24T03:25:09.048Z,73.02
2019-03-24T03:27:38.549Z,72.57
2019-03-24T03:30:08.726Z,71.65
2019-03-24T03:32:38.180Z,72.48
2019-03-24T03:35:09.632Z,73.36
2019-03-24T03:37:39.049Z,73.77
2019-03-24T03:40:10.094Z,74.00
2019-03-24T03:42:40.106Z,73.98
2019-03-24T03:45:11.545Z,74.73
2019-03-24T03:47:41.022Z,74.27
2019-03-24T03:50:10.602Z,72.81
2019-03-24T03:52:40.032Z,72.71
2019-03-24T03:55:09.872Z,71.80
2019-03-24T03:57:39.296Z,71.14
2019-03-24T04:00:09.038Z,70.96
2019-03-24T04:02:38.540Z,72.14
2019-03-24T04:05:08.284Z,73.32
2019-03-24T04:07:37.693Z,73.23
2019-03-24T04:10:07.233Z,72.99
2019-03-24T04:12:36.654Z,73.53
2019-03-24T04:15:09.645Z,73.77
2019-03-24T04:17:39.049Z,74.30
2019-03-24T04:20:08.613Z,73.92
2019-03-24T04:22:38.046Z,73.64
2019-03-24T04:25:07.588Z,73.31
2019-03-24T04:27:37.100Z,73.38
2019-03-24T04:30:07.753Z,72.92
2019-03-24T04:32:37.310Z,73.21
2019-03-24T04:35:09.697Z,73.13
2019-03-24T04:37:39.125Z,73.31
2019-03-24T04:40:08.768Z,72.47
2019-03-24T04:42:38.193Z,72.65
2019-03-24T04:45:07.840Z,73.11
2019-03-24T04:47:37.343Z,72.60
2019-03-24T04:50:10.285Z,71.87
2019-03-24T04:52:39.711Z,71.20
2019-03-24T04:55:09.559Z,71.55
2019-03-24T04:57:38.979Z,72.26
2019-03-24T05:00:10.319Z,72.28
2019-03-24T05:02:39.768Z,72.63
2019-03-24T05:05:09.525Z,73.68
2019-03-24T05:07:40.449Z,74.75
2019-03-24T05:10:12.898Z,75.19
2019-03-24T05:12:42.423Z,74.85
2019-03-24T05:15:11.893Z,74.01
2019-03-24T05:17:41.321Z,73.14
2019-03-24T05:20:10.859Z,72.94
2019-03-24T05:22:40.329Z,73.33
2019-03-24T05:25:09.804Z,72.94
2019-03-24T05:27:39.260Z,73.45
2019-03-24T05:30:08.814Z,75.42
2019-03-24T05:32:38.294Z,75.56
2019-03-24T05:35:08.832Z,75.06
2019-03-24T05:37:38.285Z,73.96
2019-03-24T05:40:07.846Z,73.52
2019-03-24T05:42:37.232Z,73.72
2019-03-24T05:45:07.398Z,73.77
2019-03-24T05:47:37.575Z,72.02
2019-03-24T05:50:08.912Z,72.44
2019-03-24T05:52:38.355Z,73.37
2019-03-24T05:55:08.216Z,73.92
2019-03-24T05:57:38.230Z,74.11
2019-03-24T06:00:08.390Z,73.23
2019-03-24T06:02:37.853Z,71.95
2019-03-24T06:05:07.717Z,71.80
2019-03-24T06:07:37.137Z,71.62
2019-03-24T06:10:09.479Z,71.23
2019-03-24T06:12:38.898Z,70.71
2019-03-24T06:15:09.349Z,70.52
2019-03-24T06:17:47.334Z,69.82
2019-03-24T06:20:10.325Z,69.47
2019-03-24T06:22:39.904Z,69.19
2019-03-24T06:25:12.341Z,67.59
2019-03-24T06:27:41.740Z,66.84
2019-03-24T06:30:11.347Z,66.15
2019-03-24T06:32:40.761Z,65.99
2019-03-24T06:35:10.324Z,65.16
2019-03-24T06:37:39.717Z,65.09
2019-03-24T06:40:09.379Z,65.16
2019-03-24T06:42:38.771Z,64.93
2019-03-24T06:45:08.435Z,64.15
2019-03-24T06:47:37.840Z,63.19
2019-03-24T06:50:08.471Z,61.71
2019-03-24T06:52:37.877Z,61.37
2019-03-24T06:55:07.575Z,60.87
2019-03-24T06:57:36.985Z,60.98
2019-03-24T07:00:10.749Z,60.99
2019-03-24T07:02:40.158Z,58.96
2019-03-24T07:05:13.211Z,59.65
2019-03-24T07:07:43.141Z,58.46
2019-03-24T07:10:13.634Z,56.94
2019-03-24T07:12:43.083Z,55.05
2019-03-24T07:15:12.711Z,53.46
2019-03-24T07:17:42.198Z,52.16
2019-03-24T07:20:14.788Z,51.61
2019-03-24T07:22:44.508Z,50.97
2019-03-24T07:25:14.006Z,51.01
2019-03-24T07:27:43.408Z,51.38
2019-03-24T07:30:13.297Z,51.75
2019-03-24T07:32:42.680Z,51.25
2019-03-24T07:35:12.268Z,50.39
2019-03-24T07:37:41.720Z,49.59
2019-03-24T07:40:14.391Z,46.02
2019-03-24T07:42:43.791Z,46.98
2019-03-24T07:45:13.392Z,48.31
2019-03-24T07:47:42.832Z,48.15
2019-03-24T07:50:12.301Z,48.44
2019-03-24T07:52:41.783Z,49.91
2019-03-24T07:55:11.486Z,49.86
2019-03-24T07:57:41.151Z,48.88
2019-03-24T08:00:12.727Z,48.03
2019-03-24T08:02:51.012Z,47.32
2019-03-24T08:05:16.314Z,46.46
2019-03-24T08:07:45.802Z,44.42
2019-03-24T08:10:15.665Z,41.69
2019-03-24T08:12:45.102Z,37.01
2019-03-24T08:15:14.720Z,36.34
2019-03-24T08:17:44.135Z,35.16
2019-03-24T08:20:13.697Z,33.26
2019-03-24T08:22:43.117Z,32.46
2019-03-24T08:25:12.629Z,32.80
2019-03-24T08:27:42.175Z,32.48
2019-03-24T08:30:11.739Z,32.19
2019-03-24T08:32:41.148Z,30.41
2019-03-24T08:35:10.669Z,29.23
2019-03-24T08:37:41.652Z,30.70
2019-03-24T08:40:11.070Z,30.67
2019-03-24T08:42:40.628Z,31.63
2019-03-24T08:45:13.934Z,30.29
2019-03-24T08:47:43.367Z,28.68
2019-03-24T08:50:12.832Z,28.61
2019-03-24T08:52:42.273Z,28.40
2019-03-24T08:55:11.955Z,27.60
2019-03-24T08:57:41.388Z,27.22
2019-03-24T09:00:11.208Z,25.83
2019-03-24T09:02:40.628Z,24.50
2019-03-24T09:05:10.378Z,24.94
2019-03-24T09:07:39.881Z,25.50
2019-03-24T09:10:12.357Z,23.13
2019-03-24T09:12:42.450Z,23.73
2019-03-24T09:15:14.013Z,22.91
2019-03-24T09:17:47.740Z,23.31
2019-03-24T09:20:17.210Z,23.74
2019-03-24T09:22:46.745Z,22.22
2019-03-24T09:25:16.447Z,21.83
2019-03-24T09:27:45.819Z,20.98
2019-03-24T09:30:29.496Z,20.75
2019-03-24T09:32:58.996Z,20.19
2019-03-24T09:35:28.409Z,20.45
2019-03-24T09:37:58.174Z,20.54
2019-03-24T09:40:29.418Z,20.67
2019-03-24T09:42:59.991Z,19.51
2019-03-24T09:45:31.005Z,19.37
2019-03-24T09:48:00.592Z,18.01
2019-03-24T09:50:30.280Z,19.16
2019-03-24T09:52:59.878Z,18.76
2019-03-24T09:55:29.286Z,18.35
2019-03-24T09:57:58.789Z,17.49
2019-03-24T10:00:28.204Z,16.64
2019-03-24T10:02:57.644Z,17.69
2019-03-24T10:05:27.113Z,17.62
2019-03-24T10:07:56.809Z,17.47
2019-03-24T10:10:26.213Z,17.08
2019-03-24T10:12:55.633Z,16.20
2019-03-24T10:15:25.071Z,16.53
2019-03-24T10:17:54.507Z,15.70
2019-03-24T10:20:23.967Z,15.81
2019-03-24T10:22:53.475Z,15.48
2019-03-24T10:25:22.896Z,15.71
2019-03-24T10:27:52.327Z,15.61
2019-03-24T10:30:21.737Z,15.95
2019-03-24T10:32:51.192Z,14.94
2019-03-24T10:35:20.589Z,14.71
2019-03-24T10:37:50.022Z,15.90
2019-03-24T10:40:28.168Z,15.66
2019-03-24T10:42:50.560Z,17.38
2019-03-24T10:45:19.982Z,16.83
2019-03-24T10:47:49.420Z,16.50
2019-03-24T10:50:18.953Z,16.14
2019-03-24T10:52:48.381Z,15.36
2019-03-24T10:55:18.081Z,15.49
2019-03-24T10:57:47.515Z,14.79
2019-03-24T11:00:19.992Z,14.92
2019-03-24T11:02:49.512Z,14.09
2019-03-24T11:05:18.931Z,14.11
2019-03-24T11:07:48.423Z,14.37
2019-03-24T11:10:17.988Z,13.99
2019-03-24T11:12:47.411Z,14.38
2019-03-24T11:15:16.850Z,13.81
2019-03-24T11:17:46.277Z,14.36
2019-03-24T11:20:15.760Z,14.24
2019-03-24T11:22:45.178Z,12.87
2019-03-24T11:25:14.743Z,13.52
2019-03-24T11:27:44.170Z,12.90
2019-03-24T11:30:14.335Z,14.00
2019-03-24T11:32:43.910Z,13.55
2019-03-24T11:35:13.402Z,13.75
2019-03-24T11:37:42.824Z,13.78
2019-03-24T11:40:12.860Z,14.25
2019-03-24T11:42:42.292Z,12.82
2019-03-24T11:45:12.629Z,13.99
2019-03-24T11:47:42.048Z,13.87
2019-03-24T11:50:12.504Z,13.76
2019-03-24T11:52:41.938Z,13.72
2019-03-24T11:55:12.884Z,13.77
2019-03-24T11:57:42.312Z,13.04
2019-03-24T12:00:14.784Z,14.86
2019-03-24T12:02:44.214Z,16.02
2019-03-24T12:05:13.851Z,15.20
2019-03-24T12:07:43.302Z,16.41
2019-03-24T12:10:13.349Z,16.75
2019-03-24T12:12:42.775Z,18.68
2019-03-24T12:15:12.426Z,21.11
2019-03-24T12:17:41.865Z,22.44
2019-03-24T12:20:11.719Z,23.35
2019-03-24T12:22:41.124Z,25.17
2019-03-24T12:25:10.729Z,25.66
2019-03-24T12:27:40.210Z,27.36
2019-03-24T12:30:10.504Z,27.76
2019-03-24T12:32:39.899Z,28.92
2019-03-24T12:35:09.669Z,29.94
2019-03-24T12:37:39.086Z,30.96
2019-03-24T12:40:09.953Z,31.80
2019-03-24T12:42:39.536Z,31.63
2019-03-24T12:45:10.799Z,31.78
2019-03-24T12:47:40.193Z,31.48
2019-03-24T12:50:11.566Z,30.10
2019-03-24T12:52:40.981Z,29.44
2019-03-24T12:55:10.540Z,29.22
2019-03-24T12:57:39.955Z,29.51
2019-03-24T13:00:15.461Z,29.08
2019-03-24T13:02:44.904Z,29.37
2019-03-24T13:05:14.509Z,30.05
2019-03-24T13:07:43.912Z,28.78
2019-03-24T13:10:13.398Z,28.33
2019-03-24T13:12:42.806Z,28.57
2019-03-24T13:15:12.537Z,28.97
2019-03-24T13:17:42.044Z,27.98
2019-03-24T13:20:19.774Z,28.28
2019-03-24T13:22:42.763Z,28.06
2019-03-24T13:25:12.191Z,27.89
2019-03-24T13:27:41.594Z,29.18
2019-03-24T13:30:12.068Z,29.18
2019-03-24T13:32:42.046Z,30.09
2019-03-24T13:35:11.556Z,30.33
2019-03-24T13:37:40.973Z,29.54
2019-03-24T13:40:10.543Z,29.55
2019-03-24T13:42:39.943Z,29.77
2019-03-24T13:45:09.583Z,30.78
2019-03-24T13:47:38.985Z,32.81
2019-03-24T13:50:08.752Z,33.89
2019-03-24T13:52:38.155Z,34.38
2019-03-24T13:55:07.587Z,34.50
2019-03-24T13:57:36.986Z,34.92
2019-03-24T14:00:07.743Z,35.22
2019-03-24T14:02:37.140Z,36.35
2019-03-24T14:05:06.747Z,36.76
2019-03-24T14:07:36.218Z,37.64
2019-03-24T14:10:07.300Z,37.89
2019-03-24T14:12:36.726Z,37.42
2019-03-24T14:15:07.897Z,37.48
2019-03-24T14:17:37.672Z,37.37
2019-03-24T14:20:11.345Z,37.41
2019-03-24T14:22:40.838Z,37.49
2019-03-24T14:25:10.408Z,36.76
2019-03-24T14:27:39.816Z,36.91
2019-03-24T14:30:10.075Z,35.59
2019-03-24T14:32:39.486Z,34.75
2019-03-24T14:35:09.133Z,33.52
2019-03-24T14:37:38.783Z,32.68
2019-03-24T14:40:09.247Z,32.29
2019-03-24T14:42:38.650Z,31.93
2019-03-24T14:45:08.809Z,31.47
2019-03-24T14:47:39.447Z,31.73
2019-03-24T14:50:09.429Z,32.21
2019-03-24T14:52:38.839Z,32.66
2019-03-24T14:55:08.428Z,33.37
2019-03-24T14:57:37.832Z,33.85
2019-03-24T15:00:09.001Z,33.20
2019-03-24T15:02:40.776Z,33.34
2019-03-24T15:05:09.783Z,33.14
2019-03-24T15:07:39.212Z,33.75
2019-03-24T15:10:08.891Z,32.61
2019-03-24T15:12:38.305Z,34.72
2019-03-24T15:15:07.801Z,34.93
2019-03-24T15:17:37.217Z,35.22
2019-03-24T15:20:07.829Z,35.71
2019-03-24T15:22:37.260Z,35.54
2019-03-24T15:25:07.354Z,34.95
2019-03-24T15:27:36.756Z,35.46
2019-03-24T15:30:08.137Z,35.94
2019-03-24T15:32:37.543Z,36.01
2019-03-24T15:35:08.214Z,36.87
2019-03-24T15:37:37.634Z,36.57
2019-03-24T15:40:07.491Z,36.26
2019-03-24T15:42:36.901Z,36.31
2019-03-24T15:45:07.774Z,37.28
2019-03-24T15:47:37.179Z,37.40
2019-03-24T15:50:08.268Z,37.80
2019-03-24T15:52:37.838Z,38.73
2019-03-24T15:55:07.513Z,38.94
2019-03-24T15:57:36.926Z,39.90
2019-03-24T16:00:08.059Z,40.71
2019-03-24T16:02:37.480Z,41.29
2019-03-24T16:05:07.385Z,41.80
2019-03-24T16:07:36.788Z,42.54
2019-03-24T16:10:07.655Z,43.46
2019-03-24T16:12:37.076Z,43.48
2019-03-24T16:15:08.635Z,43.20
2019-03-24T16:17:38.030Z,43.58
2019-03-24T16:20:07.800Z,43.91
2019-03-24T16:22:37.233Z,44.30
2019-03-24T16:25:08.352Z,44.75
2019-03-24T16:27:37.783Z,44.49
2019-03-24T16:30:08.308Z,44.30
2019-03-24T16:32:37.742Z,44.43
2019-03-24T16:35:07.490Z,44.39
2019-03-24T16:37:36.916Z,44.42
2019-03-24T16:40:08.083Z,45.08
2019-03-24T16:42:37.514Z,45.41
2019-03-24T16:45:07.253Z,45.40
2019-03-24T16:47:36.691Z,45.49
2019-03-24T16:50:07.840Z,45.94
2019-03-24T16:52:37.249Z,46.10
2019-03-24T16:55:07.311Z,46.08
2019-03-24T16:57:36.747Z,46.33
2019-03-24T17:00:07.802Z,46.40
2019-03-24T17:02:37.233Z,46.52
2019-03-24T17:05:07.889Z,45.84
2019-03-24T17:07:37.339Z,45.72
2019-03-24T17:10:09.745Z,45.70
2019-03-24T17:12:39.177Z,45.75
2019-03-24T17:15:09.725Z,45.80
2019-03-24T17:17:39.145Z,45.65
2019-03-24T17:20:09.814Z,45.50
2019-03-24T17:22:39.251Z,45.56
2019-03-24T17:25:09.195Z,45.53
2019-03-24T17:27:38.700Z,45.87
2019-03-24T17:30:11.172Z,46.21
2019-03-24T17:32:40.585Z,46.39
2019-03-24T17:35:10.643Z,46.88
2019-03-24T17:37:40.090Z,46.73
2019-03-24T17:40:12.475Z,46.77
2019-03-24T17:42:41.728Z,47.07
2019-03-24T17:45:12.282Z,47.20
2019-03-24T17:47:41.809Z,47.35
2019-03-24T17:50:12.168Z,47.61
2019-03-24T17:52:41.761Z,48.04
2019-03-24T17:55:11.498Z,48.15
2019-03-24T17:57:40.921Z,48.37
2019-03-24T18:00:15.092Z,48.67
2019-03-24T18:02:44.570Z,49.25
2019-03-24T18:05:14.922Z,49.75
2019-03-24T18:07:44.488Z,50.25
2019-03-24T18:10:14.136Z,50.66
2019-03-24T18:12:43.568Z,51.02
2019-03-24T18:15:13.130Z,51.29
2019-03-24T18:17:42.552Z,51.08
2019-03-24T18:20:13.957Z,51.54
2019-03-24T18:22:43.384Z,51.96
2019-03-24T18:25:13.050Z,52.32
2019-03-24T18:27:42.484Z,52.56
2019-03-24T18:30:12.633Z,52.69
2019-03-24T18:32:42.102Z,53.04
2019-03-24T18:35:11.853Z,53.22
2019-03-24T18:37:41.285Z,53.44
2019-03-24T18:40:11.141Z,53.60
2019-03-24T18:42:40.563Z,53.83
2019-03-24T18:45:11.716Z,53.92
2019-03-24T18:47:41.148Z,54.30
2019-03-24T18:50:11.599Z,54.72
2019-03-24T18:52:41.069Z,54.76
2019-03-24T18:55:10.796Z,54.81
2019-03-24T18:57:40.313Z,54.80
2019-03-24T19:00:11.969Z,54.70
2019-03-24T19:02:41.543Z,54.77
2019-03-24T19:05:11.439Z,54.88
2019-03-24T19:07:40.887Z,54.89
2019-03-24T19:10:12.061Z,55.14
2019-03-24T19:12:41.547Z,55.33
2019-03-24T19:15:13.810Z,55.77
2019-03-24T19:17:43.313Z,56.27
2019-03-24T19:20:13.658Z,56.81
2019-03-24T19:23:08.164Z,57.09
2019-03-24T19:25:57.111Z,57.26
2019-03-24T19:28:26.595Z,57.17
2019-03-24T19:30:56.036Z,57.30
2019-03-24T19:33:25.491Z,57.73
2019-03-24T19:35:54.977Z,58.22
2019-03-24T19:38:24.490Z,58.62
2019-03-24T19:40:53.901Z,58.75
2019-03-24T19:43:23.340Z,58.62
2019-03-24T19:45:52.811Z,58.69
2019-03-24T19:48:22.255Z,58.94
2019-03-24T19:50:51.667Z,58.68
2019-03-24T19:53:21.155Z,58.43
2019-03-24T19:55:50.648Z,58.44
2019-03-24T19:58:20.098Z,58.42
2019-03-24T20:00:49.532Z,58.61
2019-03-24T20:03:18.988Z,58.84
2019-03-24T20:05:48.389Z,58.80
2019-03-24T20:08:17.806Z,58.92
2019-03-24T20:10:47.243Z,59.25
2019-03-24T20:13:16.677Z,59.53
2019-03-24T20:15:46.078Z,60.19
2019-03-24T20:18:15.494Z,60.84
2019-03-24T20:20:45.071Z,60.97
2019-03-24T20:23:14.501Z,61.10
2019-03-24T20:25:43.880Z,61.67
2019-03-24T20:28:13.778Z,61.44
2019-03-24T20:30:43.174Z,61.79
2019-03-24T20:33:12.605Z,61.88
2019-03-24T20:35:42.004Z,61.81
2019-03-24T20:38:11.426Z,61.70
2019-03-24T20:40:40.835Z,61.73
2019-03-24T20:43:10.258Z,61.97
2019-03-24T20:45:39.664Z,62.14
2019-03-24T20:48:09.077Z,62.18
2019-03-24T20:50:38.493Z,62.63
2019-03-24T20:53:17.535Z,62.65
2019-03-24T20:55:39.046Z,62.84
2019-03-24T20:58:08.466Z,63.18
2019-03-24T21:00:38.206Z,63.01
2019-03-24T21:03:08.454Z,63.14
2019-03-24T21:05:37.931Z,63.21
2019-03-24T21:08:07.446Z,63.40
2019-03-24T21:10:36.940Z,63.04
2019-03-24T21:13:06.535Z,63.10
2019-03-24T21:15:35.939Z,63.30
2019-03-24T21:18:05.539Z,63.70
2019-03-24T21:20:34.941Z,63.81
2019-03-24T21:23:04.643Z,64.08
2019-03-24T21:25:34.045Z,64.09
2019-03-24T21:28:03.465Z,64.15
2019-03-24T21:30:38.243Z,64.10
2019-03-24T21:33:07.735Z,63.93
2019-03-24T21:35:37.249Z,63.81
2019-03-24T21:38:06.881Z,63.84
2019-03-24T21:40:36.356Z,63.88
2019-03-24T21:43:06.533Z,63.86
2019-03-24T21:45:36.344Z,63.73
2019-03-24T21:48:05.943Z,63.46
2019-03-24T21:50:36.605Z,63.42
2019-03-24T21:53:09.194Z,63.38
2019-03-24T21:55:38.835Z,63.29
2019-03-24T21:58:08.249Z,62.95
2019-03-24T22:00:38.001Z,63.00
2019-03-24T22:03:07.495Z,63.04
2019-03-24T22:05:37.208Z,62.79
2019-03-24T22:08:06.814Z,62.63
2019-03-24T22:10:36.275Z,62.62
2019-03-24T22:13:05.837Z,62.74
2019-03-24T22:15:35.234Z,62.71
2019-03-24T22:18:04.822Z,62.73
2019-03-24T22:20:34.217Z,62.38
2019-03-24T22:23:03.635Z,62.64
2019-03-24T22:25:33.034Z,62.54
2019-03-24T22:28:02.430Z,62.25
2019-03-24T22:30:31.907Z,62.08
2019-03-24T22:33:01.269Z,62.28
2019-03-24T22:35:30.686Z,62.43
2019-03-24T22:38:00.186Z,62.15
2019-03-24T22:40:29.609Z,61.87
2019-03-24T22:42:59.016Z,61.96
2019-03-24T22:45:28.431Z,61.98
2019-03-24T22:47:57.824Z,62.17
2019-03-24T22:50:27.236Z,62.03
2019-03-24T22:52:56.715Z,61.91
2019-03-24T22:55:26.135Z,61.69
2019-03-24T22:57:55.542Z,60.97
2019-03-24T23:00:26.584Z,60.65
2019-03-24T23:02:56.074Z,60.40
2019-03-24T23:05:25.498Z,60.16
2019-03-24T23:07:54.890Z,59.94
2019-03-24T23:10:24.333Z,59.85
2019-03-24T23:12:53.773Z,59.96
2019-03-24T23:15:23.198Z,60.04
2019-03-24T23:17:52.584Z,59.83
2019-03-24T23:20:21.992Z,60.09
2019-03-24T23:22:51.392Z,60.09
2019-03-24T23:25:20.820Z,60.11
2019-03-24T23:27:50.223Z,60.10
2019-03-24T23:30:19.649Z,60.01
2019-03-24T23:32:49.049Z,60.19
2019-03-24T23:35:18.479Z,60.18
2019-03-24T23:37:47.884Z,60.31
2019-03-24T23:40:17.548Z,60.33
2019-03-24T23:42:46.939Z,59.94
2019-03-24T23:45:16.357Z,59.50
2019-03-24T23:47:45.811Z,58.72
2019-03-24T23:50:15.443Z,58.91
2019-03-24T23:52:44.833Z,58.66
2019-03-24T23:55:14.246Z,58.53
2019-03-24T23:57:43.643Z,59.29
